createdAt,value
2022-08-26T00:00:41.864Z,1001.02
2022-08-26T00:05:40.544Z,1001.08
2022-08-26T00:10:40.473Z,1000.97
2022-08-26T00:15:40.447Z,1000.94
2022-08-26T00:20:40.335Z,1000.90
2022-08-26T00:25:42.487Z,1000.88
2022-08-26T00:30:40.199Z,1000.89
2022-08-26T00:35:40.137Z,1000.85
2022-08-26T00:40:41.077Z,1000.77
2022-08-26T00:45:40.044Z,1000.81
2022-08-26T00:50:39.939Z,1000.79
2022-08-26T00:55:39.891Z,1000.72
2022-08-26T01:00:39.843Z,1000.71
2022-08-26T01:05:39.942Z,1000.68
2022-08-26T01:10:39.711Z,1000.62
2022-08-26T01:15:39.611Z,1000.71
2022-08-26T01:20:39.571Z,1000.72
2022-08-26T01:25:39.515Z,1000.60
2022-08-26T01:30:39.435Z,1000.64
2022-08-26T01:35:39.367Z,1000.63
2022-08-26T01:40:39.357Z,1000.61
2022-08-26T01:45:39.271Z,1000.63
2022-08-26T01:50:39.177Z,1000.61
2022-08-26T01:55:39.095Z,1000.63
2022-08-26T02:00:39.061Z,1000.69
2022-08-26T02:05:38.967Z,1000.63
2022-08-26T02:10:39.137Z,1000.74
2022-08-26T02:15:38.837Z,1000.68
2022-08-26T02:20:38.767Z,1000.66
2022-08-26T02:25:38.696Z,1000.73
2022-08-26T02:30:38.629Z,1000.66
2022-08-26T02:35:38.578Z,1000.72
2022-08-26T02:40:38.512Z,1000.74
2022-08-26T02:45:38.452Z,1000.65
2022-08-26T02:50:38.399Z,1000.64
2022-08-26T02:55:38.327Z,1000.61
2022-08-26T03:00:38.268Z,1000.52
2022-08-26T03:05:38.184Z,1000.60
2022-08-26T03:10:38.103Z,1000.55
2022-08-26T03:15:38.067Z,1000.72
2022-08-26T03:20:37.984Z,1000.51
2022-08-26T03:25:37.925Z,1000.54
2022-08-26T03:30:37.857Z,1000.46
2022-08-26T03:35:37.807Z,1000.53
2022-08-26T03:40:37.718Z,1000.46
2022-08-26T03:45:37.665Z,1000.46
2022-08-26T03:50:37.595Z,1000.44
2022-08-26T03:55:37.528Z,1000.36
2022-08-26T04:00:37.458Z,1000.43
2022-08-26T04:05:37.399Z,1000.40
2022-08-26T04:10:37.321Z,1000.37
2022-08-26T04:15:37.282Z,1000.39
2022-08-26T04:20:37.454Z,1000.38
2022-08-26T04:25:37.141Z,1000.42
2022-08-26T04:30:37.092Z,1000.41
2022-08-26T04:35:37.012Z,1000.42
2022-08-26T04:40:36.935Z,1000.43
2022-08-26T04:45:36.883Z,1000.40
2022-08-26T04:50:36.815Z,1000.35
2022-08-26T04:55:38.180Z,1000.43
2022-08-26T05:00:36.714Z,1000.44
2022-08-26T05:05:36.635Z,1000.40
2022-08-26T05:10:36.545Z,1000.44
2022-08-26T05:15:36.530Z,1000.53
2022-08-26T05:20:36.410Z,1000.49
2022-08-26T05:25:36.458Z,1000.60
2022-08-26T05:30:36.288Z,1000.55
2022-08-26T05:35:36.229Z,1000.50
2022-08-26T05:40:36.221Z,1000.46
2022-08-26T05:45:36.104Z,1000.51
2022-08-26T05:50:36.020Z,1000.46
2022-08-26T05:55:36.001Z,1000.45
2022-08-26T06:00:35.918Z,1000.52
2022-08-26T06:05:39.064Z,1000.56
2022-08-26T06:10:36.063Z,1000.41
2022-08-26T06:15:35.775Z,1000.52
2022-08-26T06:20:35.675Z,1000.56
2022-08-26T06:25:35.570Z,1000.58
2022-08-26T06:30:35.674Z,1000.61
2022-08-26T06:35:35.446Z,1000.49
2022-08-26T06:40:35.461Z,1000.65
2022-08-26T06:45:35.310Z,1000.48
2022-08-26T06:50:35.255Z,1000.47
2022-08-26T06:55:35.171Z,1000.40
2022-08-26T07:00:35.146Z,1000.52
2022-08-26T07:05:35.065Z,1000.47
2022-08-26T07:10:35.024Z,1000.31
2022-08-26T07:15:34.994Z,1000.20
2022-08-26T07:20:34.887Z,1000.28
2022-08-26T07:25:34.816Z,1000.29
2022-08-26T07:30:34.743Z,1000.26
2022-08-26T07:35:35.708Z,1000.34
2022-08-26T07:40:34.688Z,1000.14
2022-08-26T07:45:34.584Z,1000.25
2022-08-26T07:50:49.001Z,1000.25
2022-08-26T07:55:35.484Z,1000.18
2022-08-26T08:00:34.387Z,1000.07
2022-08-26T08:05:34.436Z,1000.01
2022-08-26T08:10:34.279Z,999.99
2022-08-26T08:15:35.506Z,999.90
2022-08-26T08:20:34.171Z,999.80
2022-08-26T08:25:34.105Z,999.76
2022-08-26T08:30:35.080Z,999.73
2022-08-26T08:35:33.965Z,999.72
2022-08-26T08:40:33.976Z,999.60
2022-08-26T08:45:36.652Z,999.48
2022-08-26T08:50:33.790Z,999.47
2022-08-26T08:55:33.786Z,999.31
2022-08-26T09:00:36.635Z,999.34
2022-08-26T09:05:34.637Z,999.31
2022-08-26T09:10:33.565Z,999.20
2022-08-26T09:15:33.482Z,999.16
2022-08-26T09:20:33.416Z,999.10
2022-08-26T09:25:33.368Z,999.04
2022-08-26T09:30:33.357Z,999.05
2022-08-26T09:35:33.257Z,999.04
2022-08-26T09:40:34.539Z,999.04
2022-08-26T09:45:33.157Z,999.13
2022-08-26T09:50:33.052Z,999.24
2022-08-26T09:55:32.971Z,999.09
2022-08-26T10:00:32.913Z,999.11
2022-08-26T10:05:32.875Z,999.01
2022-08-26T10:10:32.785Z,998.92
2022-08-26T10:15:32.736Z,998.92
2022-08-26T10:20:32.663Z,998.95
2022-08-26T10:25:32.638Z,998.92
2022-08-26T10:30:32.567Z,998.92
2022-08-26T10:35:32.461Z,998.76
2022-08-26T10:40:32.496Z,998.63
2022-08-26T10:45:32.409Z,998.46
2022-08-26T10:50:32.462Z,998.56
2022-08-26T10:55:34.695Z,998.65
2022-08-26T11:00:32.177Z,998.69
2022-08-26T11:05:32.106Z,998.51
2022-08-26T11:10:32.059Z,998.43
2022-08-26T11:15:31.996Z,998.49
2022-08-26T11:20:31.908Z,998.58
2022-08-26T11:25:31.822Z,998.55
2022-08-26T11:30:31.762Z,998.43
2022-08-26T11:35:31.772Z,998.30
2022-08-26T11:40:31.775Z,998.16
2022-08-26T11:45:31.648Z,997.97
2022-08-26T11:50:31.515Z,997.82
2022-08-26T11:55:31.637Z,997.65
2022-08-26T12:00:33.844Z,997.47
2022-08-26T12:05:31.414Z,997.45
2022-08-26T12:10:31.259Z,997.43
2022-08-26T12:15:31.242Z,997.39
2022-08-26T12:20:31.162Z,997.39
2022-08-26T12:25:36.022Z,997.29
2022-08-26T12:30:32.054Z,997.33
2022-08-26T12:35:30.952Z,997.39
2022-08-26T12:40:31.067Z,997.39
2022-08-26T12:45:30.885Z,997.21
2022-08-26T12:50:30.798Z,997.26
2022-08-26T12:55:30.709Z,997.24
2022-08-26T13:00:30.662Z,997.19
2022-08-26T13:05:30.572Z,997.19
2022-08-26T13:10:31.141Z,997.16
2022-08-26T13:15:30.475Z,997.18
2022-08-26T13:20:30.424Z,997.09
2022-08-26T13:25:30.336Z,996.93
2022-08-26T13:30:30.246Z,996.94
2022-08-26T13:35:30.206Z,997.10
2022-08-26T13:40:34.386Z,997.12
2022-08-26T13:45:30.079Z,997.14
2022-08-26T13:50:29.999Z,997.13
2022-08-26T13:55:29.962Z,997.07
2022-08-26T14:00:29.933Z,997.03
2022-08-26T14:05:30.040Z,997.03
2022-08-26T14:10:29.763Z,997.19
2022-08-26T14:15:29.677Z,997.05
2022-08-26T14:20:29.621Z,996.99
2022-08-26T14:25:29.559Z,996.87
2022-08-26T14:30:29.509Z,996.92
2022-08-26T14:35:29.420Z,996.86
2022-08-26T14:40:29.422Z,996.83
2022-08-26T14:45:29.378Z,996.70
2022-08-26T14:50:29.256Z,996.66
2022-08-26T14:55:29.177Z,996.73
2022-08-26T15:00:29.107Z,996.56
2022-08-26T15:05:29.069Z,996.58
2022-08-26T15:10:29.268Z,996.49
2022-08-26T15:15:28.928Z,996.62
2022-08-26T15:20:28.882Z,996.73
2022-08-26T15:25:28.795Z,996.81
2022-08-26T15:30:28.729Z,996.74
2022-08-26T15:35:28.662Z,996.69
2022-08-26T15:40:28.657Z,996.66
2022-08-26T15:45:28.536Z,996.64
2022-08-26T15:50:28.476Z,996.84
2022-08-26T15:55:28.426Z,996.99
2022-08-26T16:00:28.406Z,997.09
2022-08-26T16:05:28.316Z,996.98
2022-08-26T16:10:28.230Z,997.17
2022-08-26T16:15:28.400Z,997.26
2022-08-26T16:20:28.236Z,997.20
2022-08-26T16:25:28.339Z,997.25
2022-08-26T16:30:28.056Z,997.34
2022-08-26T16:35:28.008Z,997.12
2022-08-26T16:40:27.895Z,997.06
2022-08-26T16:45:28.345Z,997.13
2022-08-26T16:50:27.998Z,997.23
2022-08-26T16:55:27.658Z,997.01
2022-08-26T17:00:27.587Z,997.01
2022-08-26T17:05:27.542Z,997.00
2022-08-26T17:10:27.461Z,997.04
2022-08-26T17:15:27.471Z,997.14
2022-08-26T17:20:27.663Z,997.09
2022-08-26T17:25:29.395Z,996.94
2022-08-26T17:30:27.527Z,996.86
2022-08-26T17:35:27.135Z,996.87
2022-08-26T17:40:27.173Z,996.72
2022-08-26T17:45:26.996Z,996.61
2022-08-26T17:50:26.929Z,996.51
2022-08-26T17:55:26.892Z,996.46
2022-08-26T18:00:26.801Z,996.80
2022-08-26T18:05:26.750Z,996.90
2022-08-26T18:10:26.669Z,997.16
2022-08-26T18:15:26.663Z,997.07
2022-08-26T18:20:26.784Z,997.04
2022-08-26T18:25:26.762Z,996.92
2022-08-26T18:30:26.415Z,996.93
2022-08-26T18:35:26.395Z,997.14
2022-08-26T18:40:26.474Z,997.38
2022-08-26T18:45:26.382Z,997.43
2022-08-26T18:50:26.271Z,997.57
2022-08-26T18:55:26.188Z,997.71
2022-08-26T19:00:26.072Z,997.54
2022-08-26T19:05:25.964Z,997.55
2022-08-26T19:10:26.343Z,997.51
2022-08-26T19:15:25.901Z,997.48
2022-08-26T19:20:25.795Z,997.53
2022-08-26T19:25:25.695Z,997.39
2022-08-26T19:30:25.999Z,997.32
2022-08-26T19:35:25.575Z,997.71
2022-08-26T19:40:25.792Z,997.56
2022-08-26T19:45:25.693Z,997.53
2022-08-26T19:50:25.429Z,997.31
2022-08-26T19:55:25.470Z,997.28
2022-08-26T20:00:25.306Z,997.13
2022-08-26T20:05:25.240Z,996.98
2022-08-26T20:10:25.130Z,996.90
2022-08-26T20:15:25.220Z,997.08
2022-08-26T20:20:33.031Z,997.16
2022-08-26T20:25:25.923Z,997.39
2022-08-26T20:30:24.874Z,997.44
2022-08-26T20:35:24.963Z,997.54
2022-08-26T20:40:24.783Z,997.45
2022-08-26T20:45:24.668Z,997.44
2022-08-26T20:50:24.618Z,997.32
2022-08-26T20:55:24.631Z,997.47
2022-08-26T21:00:24.562Z,997.41
2022-08-26T21:05:24.452Z,997.40
2022-08-26T21:10:24.359Z,997.31
2022-08-26T21:15:24.279Z,997.34
2022-08-26T21:20:24.212Z,997.41
2022-08-26T21:25:24.133Z,997.36
2022-08-26T21:30:24.122Z,997.43
2022-08-26T21:35:24.042Z,997.42
2022-08-26T21:40:24.257Z,997.31
2022-08-26T21:45:23.937Z,997.30
2022-08-26T21:50:23.895Z,997.22
2022-08-26T21:55:23.784Z,997.08
2022-08-26T22:00:23.785Z,997.12
2022-08-26T22:05:23.617Z,997.18
2022-08-26T22:10:23.547Z,997.09
2022-08-26T22:15:23.475Z,997.21
2022-08-26T22:20:23.437Z,997.20
2022-08-26T22:25:23.410Z,997.30
2022-08-26T22:30:23.320Z,997.29
2022-08-26T22:35:28.866Z,997.26
2022-08-26T22:40:24.334Z,997.21
2022-08-26T22:45:23.456Z,997.19
2022-08-26T22:50:23.147Z,997.18
2022-08-26T22:55:23.061Z,997.30
2022-08-26T23:00:31.982Z,997.30
2022-08-26T23:05:23.933Z,997.38
2022-08-26T23:10:22.797Z,997.40
2022-08-26T23:15:22.715Z,997.50
2022-08-26T23:20:22.684Z,997.66
2022-08-26T23:25:22.586Z,997.70
2022-08-26T23:30:22.537Z,997.73
2022-08-26T23:35:22.483Z,997.79
2022-08-26T23:40:22.475Z,997.73
2022-08-26T23:45:22.369Z,997.82
2022-08-26T23:50:22.511Z,997.77
2022-08-26T23:55:22.498Z,997.84
